createdAt,value
2022-09-14T00:01:31.100Z,19.77
2022-09-14T00:04:07.285Z,19.15
2022-09-14T00:06:35.166Z,19.25
2022-09-14T00:09:03.304Z,21.65
2022-09-14T00:11:32.110Z,21.85
2022-09-14T00:14:01.114Z,19.80
2022-09-14T00:16:33.976Z,23.15
2022-09-14T00:19:06.710Z,21.17
2022-09-14T00:21:37.158Z,21.40
2022-09-14T00:24:07.342Z,19.48
2022-09-14T00:26:35.530Z,20.67
2022-09-14T00:29:04.924Z,20.70
2022-09-14T00:31:35.195Z,21.65
2022-09-14T00:34:04.404Z,21.85
2022-09-14T00:36:33.092Z,24.75
2022-09-14T00:39:00.918Z,24.05
2022-09-14T00:41:32.161Z,26.00
2022-09-14T00:44:04.049Z,23.23
2022-09-14T00:47:02.592Z,24.98
2022-09-14T00:49:36.235Z,23.45
2022-09-14T00:52:14.806Z,27.85
2022-09-14T00:54:46.410Z,22.98
2022-09-14T00:57:15.636Z,26.33
2022-09-14T00:59:44.053Z,25.63
2022-09-14T01:02:15.041Z,25.15
2022-09-14T01:04:44.063Z,24.60
2022-09-14T01:07:36.080Z,24.45
2022-09-14T01:10:44.840Z,24.30
2022-09-14T01:13:49.498Z,25.60
2022-09-14T01:16:52.109Z,26.73
2022-09-14T01:19:46.336Z,25.25
2022-09-14T01:22:40.806Z,26.67
2022-09-14T01:25:28.930Z,25.35
2022-09-14T01:28:02.149Z,26.55
2022-09-14T01:30:33.715Z,28.20
2022-09-14T01:33:21.974Z,28.88
2022-09-14T01:35:56.051Z,29.23
2022-09-14T01:38:36.101Z,29.75
2022-09-14T01:41:07.152Z,28.50
2022-09-14T01:43:40.884Z,28.95
2022-09-14T01:46:17.180Z,27.48
2022-09-14T01:48:57.356Z,29.65
2022-09-14T01:51:32.200Z,33.13
2022-09-14T01:54:11.732Z,32.90
2022-09-14T01:56:43.210Z,30.13
2022-09-14T01:59:33.784Z,33.10
2022-09-14T02:02:28.746Z,31.77
2022-09-14T02:05:10.603Z,35.40
2022-09-14T02:07:38.863Z,32.85
2022-09-14T02:10:11.769Z,29.45
2022-09-14T02:12:39.761Z,31.85
2022-09-14T02:15:10.122Z,31.85
2022-09-14T02:17:38.064Z,28.58
2022-09-14T02:20:07.874Z,35.97
2022-09-14T02:22:35.855Z,31.38
2022-09-14T02:25:04.038Z,28.75
2022-09-14T02:27:31.333Z,34.80
2022-09-14T02:29:58.871Z,29.75
2022-09-14T02:32:33.121Z,30.67
2022-09-14T02:35:22.978Z,32.88
2022-09-14T02:38:00.397Z,31.45
2022-09-14T02:40:33.852Z,32.08
2022-09-14T02:43:15.868Z,31.08
2022-09-14T02:45:43.540Z,34.42
2022-09-14T02:48:13.731Z,31.95
2022-09-14T02:50:56.227Z,34.72
2022-09-14T02:53:39.161Z,37.70
2022-09-14T02:56:10.126Z,30.85
2022-09-14T02:58:40.496Z,30.17
2022-09-14T03:01:09.598Z,31.13
2022-09-14T03:03:36.875Z,30.80
2022-09-14T03:06:05.629Z,30.80
2022-09-14T03:08:33.419Z,31.55
2022-09-14T03:11:00.826Z,31.45
2022-09-14T03:13:28.513Z,29.98
2022-09-14T03:15:56.023Z,32.33
2022-09-14T03:18:23.464Z,28.73
2022-09-14T03:20:50.917Z,33.00
2022-09-14T03:23:18.129Z,31.65
2022-09-14T03:25:45.471Z,27.83
2022-09-14T03:28:13.132Z,33.22
2022-09-14T03:30:40.800Z,29.85
2022-09-14T03:33:07.998Z,30.42
2022-09-14T03:35:35.612Z,29.95
2022-09-14T03:38:03.397Z,28.50
2022-09-14T03:40:31.203Z,29.15
2022-09-14T03:42:58.928Z,33.08
2022-09-14T03:45:26.648Z,32.53
2022-09-14T03:47:53.844Z,29.92
2022-09-14T03:50:21.323Z,32.53
2022-09-14T03:52:48.632Z,31.73
2022-09-14T03:55:16.241Z,30.10
2022-09-14T03:57:43.605Z,26.95
2022-09-14T04:00:11.929Z,30.17
2022-09-14T04:02:40.301Z,29.27
2022-09-14T04:05:08.693Z,30.95
2022-09-14T04:07:36.341Z,24.83
2022-09-14T04:10:05.704Z,29.98
2022-09-14T04:12:38.124Z,29.98
2022-09-14T04:15:08.776Z,32.60
2022-09-14T04:17:36.383Z,34.10
2022-09-14T04:20:04.172Z,28.67
2022-09-14T04:22:31.464Z,33.10
2022-09-14T04:24:58.811Z,30.55
2022-09-14T04:27:26.026Z,33.95
2022-09-14T04:29:53.215Z,28.92
2022-09-14T04:32:20.738Z,29.35
2022-09-14T04:34:49.313Z,28.95
2022-09-14T04:37:16.562Z,27.30
2022-09-14T04:39:44.027Z,30.77
2022-09-14T04:42:11.288Z,31.13
2022-09-14T04:44:38.482Z,29.88
2022-09-14T04:47:06.139Z,32.22
2022-09-14T04:49:33.306Z,27.75
2022-09-14T04:52:00.519Z,30.17
2022-09-14T04:54:28.087Z,32.33
2022-09-14T04:56:55.443Z,29.60
2022-09-14T04:59:22.644Z,27.20
2022-09-14T05:01:50.352Z,27.48
2022-09-14T05:04:19.033Z,24.63
2022-09-14T05:06:46.417Z,28.92
2022-09-14T05:09:16.482Z,23.40
2022-09-14T05:11:44.137Z,27.30
2022-09-14T05:14:13.400Z,24.17
2022-09-14T05:16:43.384Z,22.55
2022-09-14T05:19:16.953Z,25.42
2022-09-14T05:21:45.424Z,25.88
2022-09-14T05:24:15.670Z,26.08
2022-09-14T05:26:44.409Z,25.80
2022-09-14T05:29:17.238Z,23.20
2022-09-14T05:31:45.528Z,28.30
2022-09-14T05:34:15.305Z,24.02
2022-09-14T05:36:42.538Z,25.60
2022-09-14T05:39:10.343Z,30.00
2022-09-14T05:41:38.436Z,24.52
2022-09-14T05:44:06.406Z,24.05
2022-09-14T05:46:34.297Z,26.25
2022-09-14T05:49:01.901Z,24.10
2022-09-14T05:51:29.776Z,24.27
2022-09-14T05:53:58.719Z,24.08
2022-09-14T05:56:28.870Z,24.30
2022-09-14T05:58:56.263Z,24.35
2022-09-14T06:01:26.715Z,30.00
2022-09-14T06:03:56.473Z,27.00
2022-09-14T06:06:24.487Z,28.77
2022-09-14T06:08:54.182Z,28.67
2022-09-14T06:11:24.397Z,31.63
2022-09-14T06:13:52.181Z,31.20
2022-09-14T06:16:21.281Z,32.20
2022-09-14T06:18:49.436Z,32.13
2022-09-14T06:21:19.340Z,32.13
2022-09-14T06:23:48.157Z,32.22
2022-09-14T06:26:16.303Z,35.30
2022-09-14T06:28:43.929Z,32.63
2022-09-14T06:31:15.606Z,32.65
2022-09-14T06:33:47.696Z,34.90
2022-09-14T06:36:17.975Z,30.60
2022-09-14T06:38:47.540Z,31.48
2022-09-14T06:41:20.484Z,31.40
2022-09-14T06:43:49.001Z,31.33
2022-09-14T06:46:22.308Z,33.25
2022-09-14T06:48:53.181Z,37.40
2022-09-14T06:51:23.761Z,35.42
2022-09-14T06:53:51.936Z,37.05
2022-09-14T06:56:19.851Z,34.28
2022-09-14T06:58:47.569Z,33.58
2022-09-14T07:01:18.397Z,36.63
2022-09-14T07:03:47.175Z,35.65
2022-09-14T07:06:17.790Z,29.77
2022-09-14T07:08:45.571Z,27.02
2022-09-14T07:11:14.018Z,28.13
2022-09-14T07:13:41.328Z,29.80
2022-09-14T07:16:09.430Z,28.88
2022-09-14T07:18:37.182Z,26.90
2022-09-14T07:21:17.979Z,26.40
2022-09-14T07:23:46.733Z,22.00
2022-09-14T07:26:26.068Z,20.63
2022-09-14T07:28:59.774Z,22.52
2022-09-14T07:31:42.458Z,22.00
2022-09-14T07:34:10.981Z,19.00
2022-09-14T07:36:39.462Z,24.00
2022-09-14T07:39:08.727Z,17.00
2022-09-14T07:41:36.623Z,21.42
2022-09-14T07:44:06.263Z,17.10
2022-09-14T07:46:39.232Z,14.02
2022-09-14T07:49:07.826Z,17.33
2022-09-14T07:51:36.755Z,14.50
2022-09-14T07:54:05.974Z,16.65
2022-09-14T07:56:35.148Z,15.05
2022-09-14T07:59:30.744Z,14.18
2022-09-14T08:01:51.809Z,16.55
2022-09-14T08:04:19.031Z,15.02
2022-09-14T08:06:46.263Z,15.65
2022-09-14T08:09:14.338Z,14.18
2022-09-14T08:11:41.569Z,16.08
2022-09-14T08:14:11.624Z,13.07
2022-09-14T08:16:40.825Z,14.63
2022-09-14T08:19:17.112Z,15.00
2022-09-14T08:21:47.156Z,12.43
2022-09-14T08:24:17.754Z,14.57
2022-09-14T08:26:46.513Z,13.27
2022-09-14T08:29:14.792Z,11.25
2022-09-14T08:31:44.247Z,10.70
2022-09-14T08:34:12.128Z,8.77
2022-09-14T08:36:40.856Z,10.45
2022-09-14T08:39:10.517Z,9.27
2022-09-14T08:41:44.035Z,9.73
2022-09-14T08:44:11.196Z,8.65
2022-09-14T08:46:46.918Z,10.63
2022-09-14T08:49:19.125Z,10.10
2022-09-14T08:51:46.828Z,6.97
2022-09-14T08:54:13.912Z,9.45
2022-09-14T08:56:46.104Z,10.43
2022-09-14T08:59:29.733Z,6.43
2022-09-14T09:02:04.189Z,9.13
2022-09-14T09:05:19.875Z,8.57
2022-09-14T09:08:03.040Z,6.80
2022-09-14T09:10:32.108Z,5.53
2022-09-14T09:13:01.300Z,6.82
2022-09-14T09:15:50.654Z,6.18
2022-09-14T09:18:47.018Z,7.70
2022-09-14T09:21:25.237Z,7.95
2022-09-14T09:24:04.676Z,7.07
2022-09-14T09:26:33.316Z,5.55
2022-09-14T09:29:02.992Z,6.03
2022-09-14T09:31:54.483Z,5.93
2022-09-14T09:34:48.403Z,6.07
2022-09-14T09:37:27.227Z,6.75
2022-09-14T09:39:54.858Z,3.90
2022-09-14T09:42:26.132Z,5.85
2022-09-14T09:45:07.013Z,6.47
2022-09-14T09:47:39.430Z,6.35
2022-09-14T09:50:25.180Z,5.22
2022-09-14T09:52:57.628Z,7.85
2022-09-14T09:55:37.690Z,5.80
2022-09-14T09:58:41.657Z,5.70
2022-09-14T10:01:36.930Z,6.50
2022-09-14T10:04:16.139Z,7.07
2022-09-14T10:06:45.581Z,7.20
2022-09-14T10:09:15.641Z,7.40
2022-09-14T10:11:45.230Z,6.32
2022-09-14T10:14:32.059Z,6.20
2022-09-14T10:17:28.906Z,6.35
2022-09-14T10:19:58.280Z,5.97
2022-09-14T10:22:43.744Z,6.00
2022-09-14T10:25:14.357Z,6.70
2022-09-14T10:27:48.719Z,3.92
2022-09-14T10:30:19.069Z,3.70
2022-09-14T10:33:10.253Z,4.53
2022-09-14T10:35:37.605Z,5.40
2022-09-14T10:38:16.086Z,5.93
2022-09-14T10:40:48.656Z,5.55
2022-09-14T10:43:36.529Z,4.18
2022-09-14T10:46:07.855Z,3.53
2022-09-14T10:49:10.251Z,6.15
2022-09-14T10:51:42.547Z,5.18
2022-09-14T10:54:35.304Z,6.38
2022-09-14T10:57:17.620Z,4.75
2022-09-14T11:00:02.179Z,3.38
2022-09-14T11:02:29.680Z,4.88
2022-09-14T11:04:59.893Z,3.92
2022-09-14T11:07:54.691Z,4.18
2022-09-14T11:10:36.943Z,5.82
2022-09-14T11:13:12.674Z,5.00
2022-09-14T11:15:41.319Z,6.65
2022-09-14T11:18:30.194Z,6.38
2022-09-14T11:21:07.853Z,8.20
2022-09-14T11:23:41.024Z,7.80
2022-09-14T11:26:16.818Z,5.45
2022-09-14T11:28:50.406Z,4.20
2022-09-14T11:31:33.358Z,5.90
2022-09-14T11:34:06.461Z,4.93
2022-09-14T11:36:41.621Z,3.28
2022-09-14T11:39:24.418Z,4.88
2022-09-14T11:42:08.683Z,4.20
2022-09-14T11:44:39.443Z,6.38
2022-09-14T11:47:10.268Z,4.18
2022-09-14T11:49:49.668Z,6.25
2022-09-14T11:52:21.359Z,6.55
2022-09-14T11:54:50.238Z,6.30
2022-09-14T11:57:32.287Z,6.40
2022-09-14T12:00:08.234Z,3.83
2022-09-14T12:02:38.880Z,4.75
2022-09-14T12:05:09.291Z,4.20
2022-09-14T12:07:39.859Z,4.60
2022-09-14T12:10:16.722Z,6.10
2022-09-14T12:13:07.145Z,6.70
2022-09-14T12:15:37.059Z,5.45
2022-09-14T12:18:08.108Z,5.05
2022-09-14T12:20:41.413Z,5.82
2022-09-14T12:23:26.974Z,3.97
2022-09-14T12:26:01.660Z,2.88
2022-09-14T12:28:40.659Z,4.97
2022-09-14T12:31:28.768Z,5.30
2022-09-14T12:34:17.839Z,5.57
2022-09-14T12:36:45.225Z,5.03
2022-09-14T12:39:23.839Z,5.35
2022-09-14T12:41:58.576Z,4.40
2022-09-14T12:44:37.921Z,4.95
2022-09-14T12:47:25.488Z,4.65
2022-09-14T12:49:57.892Z,5.72
2022-09-14T12:52:50.886Z,3.75
2022-09-14T12:55:21.325Z,7.97
2022-09-14T12:57:55.675Z,6.57
2022-09-14T13:00:24.270Z,5.45
2022-09-14T13:03:09.832Z,3.80
2022-09-14T13:05:37.537Z,5.32
2022-09-14T13:08:12.642Z,3.65
2022-09-14T13:10:49.315Z,3.92
2022-09-14T13:13:23.931Z,4.70
2022-09-14T13:15:58.825Z,5.20
2022-09-14T13:18:35.735Z,4.75
2022-09-14T13:21:24.903Z,4.95
2022-09-14T13:23:52.403Z,3.70
2022-09-14T13:26:22.988Z,3.90
2022-09-14T13:28:52.292Z,3.42
2022-09-14T13:31:35.030Z,5.32
2022-09-14T13:34:05.911Z,4.38
2022-09-14T13:36:42.203Z,3.28
2022-09-14T13:41:55.664Z,4.28
2022-09-14T13:44:46.933Z,3.45
2022-09-14T13:47:18.725Z,4.15
2022-09-14T13:49:48.094Z,7.13
2022-09-14T13:52:22.573Z,5.03
2022-09-14T13:54:52.864Z,3.67
2022-09-14T13:57:25.346Z,3.72
2022-09-14T14:00:15.783Z,3.78
2022-09-14T14:02:53.287Z,4.88
2022-09-14T14:05:30.378Z,3.10
2022-09-14T14:08:00.441Z,4.00
2022-09-14T14:10:32.895Z,4.60
2022-09-14T14:13:02.569Z,5.63
2022-09-14T14:15:29.969Z,5.30
2022-09-14T14:17:57.411Z,6.20
2022-09-14T14:20:24.719Z,4.13
2022-09-14T14:22:57.902Z,5.10
2022-09-14T14:25:45.459Z,4.50
2022-09-14T14:28:30.304Z,2.92
2022-09-14T14:30:59.210Z,3.28
2022-09-14T14:33:26.902Z,4.43
2022-09-14T14:35:56.609Z,5.55
2022-09-14T14:38:24.787Z,4.82
2022-09-14T14:40:55.319Z,5.10
2022-09-14T14:43:25.427Z,3.08
2022-09-14T14:45:58.615Z,8.10
2022-09-14T14:48:27.620Z,10.98
2022-09-14T14:50:55.753Z,4.82
2022-09-14T14:53:26.360Z,3.42
2022-09-14T14:55:54.033Z,4.30
2022-09-14T14:58:22.294Z,3.70
2022-09-14T15:00:50.224Z,5.22
2022-09-14T15:03:21.249Z,4.57
2022-09-14T15:05:49.347Z,3.95
2022-09-14T15:08:20.006Z,8.00
2022-09-14T15:10:49.124Z,2.83
2022-09-14T15:13:16.344Z,4.78
2022-09-14T15:15:44.487Z,6.63
2022-09-14T15:18:11.888Z,3.75
2022-09-14T15:20:39.148Z,3.85
2022-09-14T15:23:06.600Z,6.07
2022-09-14T15:25:34.001Z,3.47
2022-09-14T15:28:01.376Z,4.18
2022-09-14T15:30:28.577Z,4.93
2022-09-14T15:32:55.976Z,4.88
2022-09-14T15:35:23.155Z,4.28
2022-09-14T15:37:50.456Z,7.03
2022-09-14T15:40:17.888Z,4.10
2022-09-14T15:42:45.207Z,6.43
2022-09-14T15:45:13.725Z,5.22
2022-09-14T15:47:42.665Z,4.43
2022-09-14T15:50:11.073Z,4.25
2022-09-14T15:52:39.145Z,3.72
2022-09-14T15:55:09.007Z,4.57
2022-09-14T15:57:37.456Z,8.70
2022-09-14T16:00:11.004Z,5.10
2022-09-14T16:02:41.856Z,8.57
2022-09-14T16:05:09.411Z,8.48
2022-09-14T16:07:36.656Z,5.90
2022-09-14T16:10:04.219Z,8.05
2022-09-14T16:12:31.493Z,6.30
2022-09-14T16:14:58.616Z,5.88
2022-09-14T16:17:26.058Z,12.65
2022-09-14T16:19:53.273Z,12.38
2022-09-14T16:22:21.749Z,16.88
2022-09-14T16:24:49.221Z,19.77
2022-09-14T16:27:16.543Z,22.25
2022-09-14T16:29:43.832Z,20.67
2022-09-14T16:32:11.492Z,17.45
2022-09-14T16:34:38.707Z,10.70
2022-09-14T16:37:05.959Z,10.13
2022-09-14T16:39:35.092Z,10.85
2022-09-14T16:42:02.536Z,9.57
2022-09-14T16:44:30.024Z,10.70
2022-09-14T16:46:58.580Z,13.98
2022-09-14T16:49:28.130Z,8.05
2022-09-14T16:51:57.315Z,10.52
2022-09-14T16:54:26.059Z,11.43
2022-09-14T16:56:58.114Z,5.95
2022-09-14T16:59:26.277Z,8.05
2022-09-14T17:01:55.278Z,5.57
2022-09-14T17:04:24.035Z,7.57
2022-09-14T17:06:52.217Z,7.10
2022-09-14T17:09:23.409Z,10.07
2022-09-14T17:11:51.515Z,9.18
2022-09-14T17:14:21.963Z,7.75
2022-09-14T17:16:49.780Z,10.63
2022-09-14T17:19:17.362Z,17.05
2022-09-14T17:21:46.704Z,18.60
2022-09-14T17:24:15.321Z,13.30
2022-09-14T17:26:43.225Z,13.60
2022-09-14T17:29:11.580Z,15.23
2022-09-14T17:31:41.966Z,18.42
2022-09-14T17:34:12.175Z,16.38
2022-09-14T17:36:40.022Z,21.20
2022-09-14T17:39:11.932Z,21.10
2022-09-14T17:41:40.599Z,19.08
2022-09-14T17:44:10.680Z,20.25
2022-09-14T17:46:45.916Z,19.83
2022-09-14T17:49:16.168Z,18.55
2022-09-14T17:51:45.428Z,16.40
2022-09-14T17:54:13.714Z,15.60
2022-09-14T17:56:42.276Z,14.55
2022-09-14T17:59:16.353Z,9.68
2022-09-14T18:01:44.574Z,13.45
2022-09-14T18:04:14.455Z,13.68
2022-09-14T18:06:48.846Z,16.13
2022-09-14T18:09:24.175Z,12.45
2022-09-14T18:11:54.692Z,14.40
2022-09-14T18:14:22.281Z,14.20
2022-09-14T18:16:49.627Z,18.98
2022-09-14T18:19:17.124Z,13.45
2022-09-14T18:21:46.808Z,16.85
2022-09-14T18:24:17.389Z,18.25
2022-09-14T18:26:48.741Z,16.95
2022-09-14T18:29:18.533Z,19.42
2022-09-14T18:31:45.865Z,21.40
2022-09-14T18:34:13.647Z,20.13
2022-09-14T18:36:41.254Z,18.15
2022-09-14T18:39:08.488Z,18.52
2022-09-14T18:41:36.116Z,18.13
2022-09-14T18:44:04.198Z,23.23
2022-09-14T18:46:32.065Z,20.50
2022-09-14T18:49:01.029Z,20.60
2022-09-14T18:51:30.515Z,28.40
2022-09-14T18:54:06.177Z,22.75
2022-09-14T18:56:35.554Z,21.20
2022-09-14T18:59:04.677Z,18.23
2022-09-14T19:01:35.134Z,17.63
2022-09-14T19:04:04.673Z,19.10
2022-09-14T19:06:33.976Z,15.88
2022-09-14T19:09:01.494Z,15.45
2022-09-14T19:11:30.694Z,16.50
2022-09-14T19:14:01.637Z,19.88
2022-09-14T19:16:29.990Z,16.27
2022-09-14T19:18:58.038Z,17.23
2022-09-14T19:21:28.174Z,14.02
2022-09-14T19:24:04.982Z,15.00
2022-09-14T19:26:46.019Z,12.45
2022-09-14T19:29:16.902Z,15.25
2022-09-14T19:31:44.277Z,14.63
2022-09-14T19:34:11.822Z,16.48
2022-09-14T19:36:39.220Z,14.77
2022-09-14T19:39:06.665Z,18.50
2022-09-14T19:41:34.868Z,13.93
2022-09-14T19:44:03.336Z,13.32
2022-09-14T19:46:33.509Z,11.00
2022-09-14T19:49:00.764Z,16.35
2022-09-14T19:51:30.797Z,17.48
2022-09-14T19:54:00.535Z,16.98
2022-09-14T19:56:30.554Z,18.15
2022-09-14T19:59:00.269Z,17.45
2022-09-14T20:01:29.732Z,20.38
2022-09-14T20:03:57.540Z,16.08
2022-09-14T20:06:31.904Z,15.07
2022-09-14T20:09:05.232Z,13.73
2022-09-14T20:11:35.005Z,23.05
2022-09-14T20:14:04.180Z,15.73
2022-09-14T20:16:37.185Z,15.80
2022-09-14T20:19:12.215Z,10.48
2022-09-14T20:21:41.429Z,15.13
2022-09-14T20:24:17.730Z,15.48
2022-09-14T20:26:50.428Z,15.95
2022-09-14T20:29:19.813Z,11.77
2022-09-14T20:31:47.442Z,16.42
2022-09-14T20:34:16.605Z,16.58
2022-09-14T20:36:44.571Z,19.50
2022-09-14T20:39:11.759Z,13.77
2022-09-14T20:41:39.685Z,16.70
2022-09-14T20:44:07.456Z,12.93
2022-09-14T20:46:39.306Z,15.77
2022-09-14T20:49:10.268Z,14.48
2022-09-14T20:51:37.973Z,17.20
2022-09-14T20:54:06.186Z,14.45
2022-09-14T20:56:35.258Z,15.45
2022-09-14T20:59:05.931Z,11.00
2022-09-14T21:01:36.613Z,14.27
2022-09-14T21:04:12.886Z,12.15
2022-09-14T21:06:43.359Z,13.75
2022-09-14T21:09:12.061Z,12.43
2022-09-14T21:11:40.160Z,13.57
2022-09-14T21:14:07.558Z,12.30
2022-09-14T21:16:38.036Z,13.63
2022-09-14T21:19:10.566Z,11.70
2022-09-14T21:21:39.393Z,13.32
2022-09-14T21:24:08.968Z,14.20
2022-09-14T21:26:41.886Z,15.90
2022-09-14T21:29:13.203Z,14.82
2022-09-14T21:31:40.717Z,15.57
2022-09-14T21:34:10.214Z,12.45
2022-09-14T21:36:43.359Z,12.07
2022-09-14T21:39:13.617Z,12.57
2022-09-14T21:41:42.878Z,13.32
2022-09-14T21:44:10.164Z,13.88
2022-09-14T21:46:37.625Z,12.45
2022-09-14T21:49:05.124Z,13.85
2022-09-14T21:51:35.113Z,15.52
2022-09-14T21:54:09.314Z,14.25
2022-09-14T21:56:40.701Z,13.32
2022-09-14T21:59:14.255Z,13.43
2022-09-14T22:01:42.151Z,14.50
2022-09-14T22:04:16.758Z,13.10
2022-09-14T22:06:45.763Z,15.52
2022-09-14T22:09:15.671Z,11.20
2022-09-14T22:11:43.122Z,13.57
2022-09-14T22:14:13.349Z,15.40
2022-09-14T22:16:41.459Z,11.65
2022-09-14T22:19:23.166Z,11.40
2022-09-14T22:21:51.589Z,13.02
2022-09-14T22:24:37.047Z,9.98
2022-09-14T22:27:09.972Z,11.48
2022-09-14T22:29:40.645Z,13.43
2022-09-14T22:32:11.243Z,15.30
2022-09-14T22:34:41.489Z,12.93
2022-09-14T22:37:09.069Z,13.27
2022-09-14T22:39:36.632Z,11.10
2022-09-14T22:42:04.104Z,14.55
2022-09-14T22:44:31.697Z,10.45
2022-09-14T22:46:59.036Z,11.45
2022-09-14T22:49:26.304Z,13.32
2022-09-14T22:51:53.583Z,14.27
2022-09-14T22:54:20.930Z,13.52
2022-09-14T22:56:48.187Z,10.27
2022-09-14T22:59:15.505Z,11.13
2022-09-14T23:01:42.847Z,12.82
2022-09-14T23:04:12.475Z,13.90
2022-09-14T23:06:42.888Z,13.80
2022-09-14T23:09:13.440Z,14.23
2022-09-14T23:11:42.313Z,14.02
2022-09-14T23:14:09.511Z,15.45
2022-09-14T23:16:37.100Z,16.02
2022-09-14T23:19:09.312Z,15.80
2022-09-14T23:21:36.536Z,17.83
2022-09-14T23:24:06.223Z,14.35
2022-09-14T23:26:34.324Z,14.95
2022-09-14T23:29:05.741Z,17.35
2022-09-14T23:31:33.664Z,12.55
2022-09-14T23:34:03.865Z,15.07
2022-09-14T23:36:31.496Z,13.65
2022-09-14T23:38:58.749Z,13.18
2022-09-14T23:41:27.547Z,12.60
2022-09-14T23:43:54.997Z,14.90
2022-09-14T23:46:22.541Z,11.65
2022-09-14T23:48:50.770Z,12.63
2022-09-14T23:51:18.757Z,14.90
2022-09-14T23:53:46.340Z,18.17
2022-09-14T23:56:14.445Z,12.18
2022-09-14T23:58:42.371Z,12.70
